Time;durP1;ratioP1;P1;durP2;ratioP2;P2;SDS_P1;SDS_P2;PMS_P1;PMS_P2;Temp;Humidity;BMP_temperature;BMP_pressure;BME280_temperature;BME280_humidity;BME280_pressure;Samples;Min_cycle;Max_cycle;Signal;HPM_P1;HPM_P2
2023/01/19 00:01:10;;;;;;;14.13;9.10;;;;;;;;;;5079950;28;20520;-80
2023/01/19 00:03:35;;;;;;;12.48;8.05;;;;;;;;;;5076921;28;20034;-81
2023/01/19 00:06:07;;;;;;;13.60;8.15;;;;;;;;;;5079562;28;20040;-81
2023/01/19 00:08:33;;;;;;;14.88;8.98;;;;;;;22.46;100.00;87214.63;5075981;28;20036;-82
2023/01/19 00:10:58;;;;;;;12.68;8.32;;;;;;;;;;5073307;28;20445;-81
2023/01/19 00:13:24;;;;;;;16.70;8.73;;;;;;;;;;5074567;28;20044;-81
2023/01/19 00:15:49;;;;;;;14.70;9.27;;;;;;;;;;5071431;28;20105;-81
2023/01/19 00:18:14;;;;;;;16.60;8.93;;;;;;;;;;5077649;28;20028;-82
2023/01/19 00:20:40;;;;;;;13.73;8.27;;;;;;;;;;5080336;28;20040;-81
2023/01/19 00:23:06;;;;;;;15.98;8.40;;;;;;;;;;5071527;28;20032;-81
2023/01/19 00:25:32;;;;;;;15.07;8.90;;;;;;;;;;5076344;28;20062;-81
2023/01/19 00:27:57;;;;;;;13.27;8.60;;;;;;;;;;5065872;28;20048;-82
2023/01/19 00:30:22;;;;;;;15.55;8.43;;;;;;;;;;5071912;28;20267;-81
2023/01/19 00:32:48;;;;;;;14.80;9.05;;;;;;;;;;5073387;28;20033;-81
2023/01/19 00:35:14;;;;;;;18.10;9.10;;;;;;;;;;5073229;28;20037;-81
2023/01/19 00:37:39;;;;;;;17.75;9.40;;;;;;;;;;5074138;28;20040;-82
2023/01/19 00:40:04;;;;;;;22.33;9.60;;;;;;;;;;5079488;28;20059;-82
2023/01/19 00:42:39;;;;;;;15.40;8.77;;;;;;;;;;5074814;28;20263;-81
2023/01/19 00:45:05;;;;;;;15.27;9.00;;;;;;;;;;5074675;28;20036;-81
2023/01/19 00:47:31;;;;;;;18.23;10.38;;;;;;;;;;5074923;28;20085;-81
2023/01/19 00:49:56;;;;;;;16.60;9.40;;;;;;;;;;5076474;28;20061;-82
2023/01/19 00:52:21;;;;;;;14.50;9.40;;;;;;;22.39;100.00;65941.84;5072867;28;20048;-81
2023/01/19 00:54:46;;;;;;;18.27;9.30;;;;;;;;;;5078090;28;20051;-80
2023/01/19 00:57:11;;;;;;;13.73;8.70;;;;;;;;;;5076207;28;20037;-83
2023/01/19 00:59:37;;;;;;;16.33;8.97;;;;;;;;;;5073553;28;20292;-81
2023/01/19 01:02:02;;;;;;;15.87;9.33;;;;;;;;;;5063484;28;20041;-84
2023/01/19 01:04:27;;;;;;;16.73;9.73;;;;;;;;;;5076348;28;20092;-81
2023/01/19 01:06:52;;;;;;;16.77;10.20;;;;;;;;;;5069446;28;20059;-82
2023/01/19 01:09:17;;;;;;;16.63;10.27;;;;;;;;;;5076901;28;20287;-82
2023/01/19 01:11:43;;;;;;;16.83;10.35;;;;;;;;;;5073532;28;20079;-81
2023/01/19 01:14:09;;;;;;;17.90;9.68;;;;;;;;;;5075906;28;20060;-81
2023/01/19 01:16:34;;;;;;;19.90;11.40;;;;;;;;;;5076165;28;20041;-82
2023/01/19 01:19:00;;;;;;;17.00;11.27;;;;;;;;;;5072815;28;20067;-80
2023/01/19 01:21:26;;;;;;;20.95;11.45;;;;;;;;;;5075122;28;20399;-81
2023/01/19 01:23:51;;;;;;;17.87;11.70;;;;;;;;;;5072884;28;20042;-81
2023/01/19 01:26:16;;;;;;;21.83;12.50;;;;;;;;;;5071903;28;20351;-80
2023/01/19 01:28:41;;;;;;;20.58;12.02;;;;;;;;;;5077486;28;20299;-81
2023/01/19 01:31:06;;;;;;;19.33;11.70;;;;;;;;;;5077129;28;20040;-81
2023/01/19 01:33:32;;;;;;;20.77;12.60;;;;;;;;;;5074494;28;20298;-81
2023/01/19 01:36:00;;;;;;;17.67;12.00;;;;;;;;;;5073421;28;20041;-81
2023/01/19 01:38:25;;;;;;;22.00;12.68;;;;;;;;;;5071960;28;20059;-81
2023/01/19 01:40:50;;;;;;;21.97;12.63;;;;;;;;;;5074263;28;20036;-82
2023/01/19 01:43:16;;;;;;;24.50;12.97;;;;;;;;;;5077261;28;20040;-82
2023/01/19 01:45:42;;;;;;;22.98;12.90;;;;;;;;;;5071286;28;20039;-81
2023/01/19 01:48:10;;;;;;;22.35;12.20;;;;;;;;;;5071294;28;20024;-83
2023/01/19 01:50:38;;;;;;;22.48;12.40;;;;;;;;;;5078431;28;20102;-82
2023/01/19 01:53:08;;;;;;;20.10;12.40;;;;;;;;;;5073990;28;20063;-81
2023/01/19 01:55:39;;;;;;;20.08;11.88;;;;;;;;;;5077119;28;20062;-82
2023/01/19 01:58:04;;;;;;;;;;;;;;;;;;5071687;28;20033;-83
2023/01/19 02:02:49;;;;;;;22.08;12.60;;;;;;;;;;5069402;28;19970;-81
2023/01/19 02:03:18;;;;;;;19.05;12.07;;;;;;;;;;5073889;28;20048;-81
2023/01/19 02:05:44;;;;;;;22.23;13.32;;;;;;;;;;5077649;28;20041;-81
2023/01/19 02:13:46;;;;;;;21.48;12.57;;;;;;;;;;5066204;28;20044;-81
2023/01/19 02:16:12;;;;;;;19.30;12.45;;;;;;;;;;5070589;28;20029;-81
2023/01/19 02:18:38;;;;;;;22.38;13.00;;;;;;;;;;5070498;28;20063;-82
2023/01/19 02:21:22;;;;;;;20.30;11.95;;;;;;;;;;5066421;28;20033;-81
2023/01/19 02:23:52;;;;;;;21.63;13.70;;;;;;;;;;5067361;28;20033;-82
2023/01/19 02:26:34;;;;;;;24.38;13.15;;;;;;;;;;5076921;28;20110;-82
2023/01/19 02:28:59;;;;;;;19.65;12.45;;;;;;;;;;5078094;28;20029;-82
2023/01/19 02:31:25;;;;;;;21.60;12.82;;;;;;;;;;5077903;28;20101;-83
2023/01/19 02:33:50;;;;;;;22.95;13.15;;;;;;;;;;5079165;28;20060;-81
2023/01/19 02:36:17;;;;;;;22.13;12.98;;;;;;;;;;5071322;28;20036;-82
2023/01/19 02:38:44;;;;;;;24.05;13.68;;;;;;;;;;5071365;28;20041;-81
2023/01/19 02:41:11;;;;;;;21.98;13.77;;;;;;;;;;5060336;28;20526;-81
2023/01/19 02:43:37;;;;;;;22.00;13.45;;;;;;;;;;5070689;28;20041;-81
2023/01/19 02:46:02;;;;;;;23.10;13.43;;;;;;;;;;5071901;28;20043;-81
2023/01/19 02:48:28;;;;;;;22.43;13.80;;;;;;;;;;5076532;28;20060;-82
2023/01/19 02:50:58;;;;;;;21.73;12.63;;;;;;;;;;5073257;28;20156;-80
2023/01/19 02:53:26;;;;;;;19.43;12.60;;;;;;;;;;5076072;28;20043;-81
2023/01/19 02:56:06;;;;;;;21.20;13.02;;;;;;;;;;5077257;28;20054;-81
2023/01/19 02:58:31;;;;;;;22.05;13.20;;;;;;;;;;5069038;28;20044;-81
2023/01/19 03:01:07;;;;;;;20.23;12.77;;;;;;;;;;5070669;28;20127;-81
2023/01/19 03:03:47;;;;;;;20.88;13.00;;;;;;;;;;5069880;28;20029;-81
2023/01/19 03:06:18;;;;;;;21.65;12.27;;;;;;;;;;5075532;28;20039;-81
2023/01/19 03:08:51;;;;;;;21.05;12.80;;;;;;;;;;5078205;28;20100;-82
2023/01/19 03:11:17;;;;;;;19.85;12.07;;;;;;;;;;5075060;28;20131;-83
2023/01/19 03:13:48;;;;;;;21.50;13.18;;;;;;;;;;5074086;28;20052;-81
2023/01/19 03:16:20;;;;;;;23.15;13.02;;;;;;;;;;5066108;28;20045;-80
2023/01/19 03:18:50;;;;;;;22.45;12.70;;;;;;;22.38;0.00;54035.31;5071856;28;20096;-81
2023/01/19 03:21:18;;;;;;;20.70;12.65;;;;;;;;;;5068055;28;20489;-82
2023/01/19 03:23:45;;;;;;;20.17;13.18;;;;;;;;;;5077215;28;20033;-81
2023/01/19 03:26:13;;;;;;;21.55;13.32;;;;;;;;;;5072734;28;20039;-82
2023/01/19 03:28:39;;;;;;;24.63;13.63;;;;;;;;;;5073947;28;20123;-82
2023/01/19 03:31:09;;;;;;;22.05;13.07;;;;;;;;;;5070028;28;20040;-81
2023/01/19 03:33:36;;;;;;;23.08;13.30;;;;;;;;;;5074599;28;20072;-82
2023/01/19 03:36:07;;;;;;;18.40;12.07;;;;;;;;;;5074375;28;20036;-81
2023/01/19 03:38:35;;;;;;;21.38;12.75;;;;;;;;;;5069408;28;20762;-81
2023/01/19 03:41:01;;;;;;;21.58;13.10;;;;;;;;;;5078654;28;20029;-81
2023/01/19 03:43:27;;;;;;;20.23;13.02;;;;;;;;;;5070913;28;20037;-81
2023/01/19 03:45:53;;;;;;;18.88;12.50;;;;;;;;;;5074622;28;20043;-82
2023/01/19 03:48:20;;;;;;;20.70;13.57;;;;;;;;;;5069689;28;20057;-81
2023/01/19 03:50:45;;;;;;;19.13;12.88;;;;;;;;;;5075529;28;20500;-81
2023/01/19 03:53:12;;;;;;;18.60;11.45;;;;;;;;;;5072511;28;20061;-81
2023/01/19 03:55:38;;;;;;;18.88;11.27;;;;;;;;;;5074378;28;20048;-81
2023/01/19 03:58:04;;;;;;;18.60;12.23;;;;;;;;;;5076881;28;20056;-81
2023/01/19 04:00:29;;;;;;;20.55;13.07;;;;;;;;;;5069407;28;20067;-82
2023/01/19 04:02:54;;;;;;;21.33;12.27;;;;;;;;;;5072726;28;20047;-80
2023/01/19 04:05:20;;;;;;;19.42;12.80;;;;;;;;;;5060086;28;20041;-82
2023/01/19 04:07:47;;;;;;;21.75;12.52;;;;;;;;;;5075484;28;20044;-82
2023/01/19 04:10:12;;;;;;;21.63;13.60;;;;;;;;;;5076851;28;20032;-82
2023/01/19 04:12:38;;;;;;;18.17;12.10;;;;;;;;;;5059050;28;20037;-81
2023/01/19 04:15:04;;;;;;;16.25;10.80;;;;;;;;;;5073390;28;20052;-82
2023/01/19 04:17:30;;;;;;;19.58;12.60;;;;;;;;;;5072580;28;20036;-81
2023/01/19 04:19:55;;;;;;;21.23;13.18;;;;;;;;;;5065237;28;20040;-81
2023/01/19 04:22:20;;;;;;;19.50;12.73;;;;;;;;;;5073518;28;25351;-81
2023/01/19 04:24:45;;;;;;;19.10;12.40;;;;;;;;;;5072833;28;20028;-81
2023/01/19 04:27:11;;;;;;;18.95;12.65;;;;;;;;;;5057852;28;20033;-81
2023/01/19 04:29:36;;;;;;;17.47;11.57;;;;;;;;;;5074362;28;20043;-81
2023/01/19 04:32:01;;;;;;;17.17;11.37;;;;;;;;;;5071426;28;20362;-81
2023/01/19 04:34:26;;;;;;;19.00;12.27;;;;;;;;;;5067294;28;20041;-82
2023/01/19 04:36:51;;;;;;;19.37;12.23;;;;;;;;;;5064796;28;20918;-81
2023/01/19 04:39:16;;;;;;;19.57;12.40;;;;;;;;;;5065532;28;20389;-82
2023/01/19 04:41:42;;;;;;;19.97;12.63;;;;;;;;;;5065827;28;20178;-81
2023/01/19 04:44:07;;;;;;;19.90;12.75;;;;;;;;;;5074514;28;20428;-81
2023/01/19 04:46:32;;;;;;;22.25;13.75;;;;;;;;;;5070793;28;20503;-81
2023/01/19 04:48:58;;;;;;;20.40;13.07;;;;;;;;;;5075357;28;20416;-81
2023/01/19 04:51:23;;;;;;;22.43;12.77;;;;;;;;;;5072568;28;20036;-84
2023/01/19 04:53:49;;;;;;;23.27;14.68;;;;;;;;;;5073588;28;20294;-81
2023/01/19 04:56:14;;;;;;;19.57;12.50;;;;;;;;;;5073551;28;20108;-83
2023/01/19 04:58:39;;;;;;;23.37;14.33;;;;;;;;;;5072010;28;20284;-82
2023/01/19 05:01:08;;;;;;;19.50;13.20;;;;;;;;;;5075027;28;20028;-81
2023/01/19 05:03:33;;;;;;;21.90;13.57;;;;;;;;;;5074843;28;20081;-83
2023/01/19 05:05:58;;;;;;;22.53;13.30;;;;;;;;;;5072947;28;20044;-81
2023/01/19 05:08:23;;;;;;;22.33;13.85;;;;;;;;;;5075755;28;20114;-82
2023/01/19 05:10:49;;;;;;;21.30;13.77;;;;;;;22.39;100.00;120322.16;5069514;28;20033;-80
2023/01/19 05:13:14;;;;;;;20.50;13.38;;;;;;;;;;5071451;28;20283;-82
2023/01/19 05:15:39;;;;;;;19.70;12.43;;;;;;;;;;5067635;28;20100;-80
2023/01/19 05:18:04;;;;;;;21.33;12.90;;;;;;;;;;5075456;28;20297;-82
2023/01/19 05:20:30;;;;;;;24.87;14.23;;;;;;;22.39;100.00;120346.25;5076811;28;20056;-80
2023/01/19 05:22:55;;;;;;;19.73;13.07;;;;;;;;;;5063865;28;20301;-81
2023/01/19 05:25:20;;;;;;;20.73;12.60;;;;;;;;;;5074260;28;20519;-83
2023/01/19 05:27:45;;;;;;;22.93;14.20;;;;;;;;;;5073945;28;20294;-81
2023/01/19 05:30:12;;;;;;;22.87;14.40;;;;;;;;;;5075483;28;20348;-81
2023/01/19 05:32:37;;;;;;;21.05;13.90;;;;;;;;;;5075093;28;20365;-81
2023/01/19 05:35:02;;;;;;;21.77;13.33;;;;;;;;;;5070943;28;20078;-80
2023/01/19 05:37:27;;;;;;;20.95;13.80;;;;;;;;;;5071473;28;20084;-82
2023/01/19 05:39:53;;;;;;;22.47;13.80;;;;;;;;;;5078447;28;20043;-81
2023/01/19 05:42:18;;;;;;;23.57;12.97;;;;;;;;;;5075291;28;20036;-81
2023/01/19 05:44:43;;;;;;;23.60;14.00;;;;;;;;;;5079090;28;20058;-81
2023/01/19 05:47:08;;;;;;;23.83;14.10;;;;;;;;;;5071274;28;20038;-82
2023/01/19 05:49:34;;;;;;;23.20;14.47;;;;;;;;;;5074736;28;20296;-81
2023/01/19 05:52:00;;;;;;;22.60;14.32;;;;;;;;;;5065649;28;20298;-81
2023/01/19 05:54:27;;;;;;;27.35;15.02;;;;;;;;;;5065504;28;20041;-82
2023/01/19 05:56:52;;;;;;;25.67;14.88;;;;;;;;;;5070246;28;20035;-81
2023/01/19 05:59:22;;;;;;;26.53;16.10;;;;;;;;;;5078552;28;20108;-81
2023/01/19 06:01:48;;;;;;;24.17;15.30;;;;;;;;;;5077515;28;20029;-81
2023/01/19 06:04:13;;;;;;;24.60;15.10;;;;;;;;;;5072276;28;20037;-81
2023/01/19 06:06:38;;;;;;;27.77;15.87;;;;;;;;;;5073256;28;20290;-81
2023/01/19 06:09:03;;;;;;;25.97;14.83;;;;;;;;;;5078166;28;20181;-81
2023/01/19 06:11:28;;;;;;;23.10;14.90;;;;;;;;;;5079265;28;20748;-82
2023/01/19 06:13:53;;;;;;;24.10;14.47;;;;;;;;;;5075551;28;20120;-81
2023/01/19 06:16:19;;;;;;;22.37;14.17;;;;;;;;;;5068671;28;20396;-81
2023/01/19 06:18:44;;;;;;;22.23;14.43;;;;;;;;;;5079526;28;20043;-81
2023/01/19 06:21:11;;;;;;;20.23;13.70;;;;;;;;;;5076796;28;20348;-81
2023/01/19 06:23:36;;;;;;;23.13;14.07;;;;;;;;;;5076513;28;20294;-81
2023/01/19 06:26:02;;;;;;;23.55;14.00;;;;;;;;;;5073269;28;20040;-80
2023/01/19 06:28:27;;;;;;;24.13;13.35;;;;;;;;;;5071459;28;20053;-82
2023/01/19 06:30:53;;;;;;;22.13;13.27;;;;;;;;;;5077793;28;20037;-82
2023/01/19 06:33:21;;;;;;;22.27;13.73;;;;;;;;;;5070096;28;20123;-81
2023/01/19 06:35:51;;;;;;;22.38;13.88;;;;;;;22.38;100.00;120364.34;5074446;28;20577;-81
2023/01/19 06:38:17;;;;;;;22.77;13.55;;;;;;;;;;5067490;28;20123;-82
2023/01/19 06:40:42;;;;;;;21.65;14.02;;;;;;;;;;5072269;28;20040;-81
2023/01/19 06:43:08;;;;;;;23.02;13.93;;;;;;;;;;5067713;28;20492;-81
2023/01/19 06:45:38;;;;;;;23.73;14.88;;;;;;;;;;5073553;28;20633;-80
2023/01/19 06:48:04;;;;;;;20.27;13.25;;;;;;;;;;5075085;28;20057;-83
2023/01/19 06:50:29;;;;;;;24.67;14.63;;;;;;;;;;5067248;28;20396;-83
2023/01/19 06:52:54;;;;;;;24.17;14.80;;;;;;;;;;5072666;28;20098;-83
2023/01/19 06:55:19;;;;;;;23.52;14.93;;;;;;;;;;5068297;28;20286;-82
2023/01/19 06:57:44;;;;;;;24.97;14.80;;;;;;;;;;5074107;28;20060;-82
2023/01/19 07:00:13;;;;;;;25.85;15.52;;;;;;;;;;5067651;28;20292;-85
2023/01/19 07:02:42;;;;;;;23.08;14.52;;;;;;;;;;5064276;28;20040;-83
2023/01/19 07:05:13;;;;;;;22.67;14.43;;;;;;;;;;5074213;28;20081;-83
2023/01/19 07:07:39;;;;;;;26.30;15.10;;;;;;;;;;5076091;28;20088;-83
2023/01/19 07:10:05;;;;;;;24.83;14.75;;;;;;;;;;5075393;28;20059;-83
2023/01/19 07:12:31;;;;;;;23.20;15.13;;;;;;;;;;5058342;28;20037;-83
2023/01/19 07:14:56;;;;;;;27.47;14.50;;;;;;;;;;5068591;28;20159;-83
2023/01/19 07:17:21;;;;;;;26.03;15.37;;;;;;;;;;5068954;28;20302;-83
2023/01/19 07:19:46;;;;;;;24.37;14.87;;;;;;;;;;5066145;28;20271;-83
2023/01/19 07:22:11;;;;;;;21.97;14.27;;;;;;;;;;5067437;28;20280;-84
2023/01/19 07:24:37;;;;;;;24.20;14.13;;;;;;;;;;5075782;28;20290;-83
2023/01/19 07:27:02;;;;;;;24.40;14.93;;;;;;;;;;5075266;28;20040;-84
2023/01/19 07:29:30;;;;;;;23.85;14.23;;;;;;;;;;5057564;28;20059;-84
2023/01/19 07:31:55;;;;;;;21.85;13.73;;;;;;;;;;5067984;28;20116;-83
2023/01/19 07:34:20;;;;;;;21.65;13.27;;;;;;;;;;5073532;28;20128;-83
2023/01/19 07:36:46;;;;;;;25.58;14.80;;;;;;;;;;5072972;28;20090;-84
2023/01/19 07:39:11;;;;;;;23.92;15.15;;;;;;;;;;5063807;28;20021;-84
2023/01/19 07:41:36;;;;;;;22.55;14.07;;;;;;;;;;5064117;28;20047;-84
2023/01/19 07:44:02;;;;;;;20.93;13.43;;;;;;;;;;5065248;28;20033;-84
2023/01/19 07:46:27;;;;;;;23.83;13.70;;;;;;;;;;5064848;28;20648;-83
2023/01/19 07:48:52;;;;;;;19.37;11.70;;;;;;;;;;5056424;28;20504;-84
2023/01/19 07:51:17;;;;;;;18.77;11.75;;;;;;;;;;5083047;28;20074;-84
2023/01/19 07:53:43;;;;;;;20.17;12.07;;;;;;;;;;5086967;28;20029;-83
2023/01/19 07:56:09;;;;;;;23.35;13.00;;;;;;;;;;5088793;28;20032;-83
2023/01/19 07:58:34;;;;;;;18.92;12.18;;;;;;;;;;5082134;28;20045;-85
2023/01/19 08:00:59;;;;;;;21.77;12.88;;;;;;;;;;5067336;28;20086;-85
2023/01/19 08:03:25;;;;;;;17.42;12.02;;;;;;;;;;5086775;28;20033;-85
2023/01/19 08:05:51;;;;;;;21.17;13.23;;;;;;;;;;5090055;28;20092;-85
2023/01/19 08:08:16;;;;;;;18.02;12.20;;;;;;;;;;5080296;28;20275;-84
2023/01/19 08:10:41;;;;;;;18.50;11.97;;;;;;;;;;5074102;28;20029;-84
2023/01/19 08:13:07;;;;;;;18.80;12.10;;;;;;;;;;5075522;28;20040;-84
2023/01/19 08:15:32;;;;;;;21.08;12.50;;;;;;;;;;5088241;28;20106;-84
2023/01/19 08:17:58;;;;;;;19.47;13.07;;;;;;;;;;5077584;28;20036;-85
2023/01/19 08:20:24;;;;;;;22.40;12.77;;;;;;;;;;5076111;28;20067;-84
2023/01/19 08:22:49;;;;;;;20.90;13.20;;;;;;;;;;5076825;28;20029;-83
2023/01/19 08:25:14;;;;;;;19.57;12.50;;;;;;;;;;5085589;28;20092;-84
2023/01/19 08:27:39;;;;;;;18.80;12.40;;;;;;;;;;5081723;28;20267;-85
2023/01/19 08:30:05;;;;;;;20.33;12.53;;;;;;;;;;5082756;28;20064;-83
2023/01/19 08:32:31;;;;;;;21.88;12.45;;;;;;;;;;5085929;28;20279;-84
2023/01/19 08:34:56;;;;;;;24.08;13.55;;;;;;;;;;5081234;28;20632;-86
2023/01/19 08:37:21;;;;;;;21.30;13.10;;;;;;;;;;5069563;28;20037;-85
2023/01/19 08:39:46;;;;;;;20.67;12.83;;;;;;;;;;5066757;28;20252;-85
2023/01/19 08:42:12;;;;;;;20.80;13.70;;;;;;;;;;5083637;28;20040;-84
2023/01/19 08:44:37;;;;;;;19.70;12.63;;;;;;;;;;5081015;28;20271;-85
2023/01/19 08:47:02;;;;;;;21.57;13.13;;;;;;;;;;5081032;28;20040;-84
2023/01/19 08:49:27;;;;;;;20.73;13.07;;;;;;;;;;5074916;28;20089;-86
2023/01/19 08:51:52;;;;;;;16.43;11.73;;;;;;;;;;5080457;28;20040;-83
2023/01/19 08:54:19;;;;;;;17.73;12.00;;;;;;;;;;5086053;28;20060;-83
2023/01/19 08:56:44;;;;;;;19.60;12.35;;;;;;;;;;5082613;28;20351;-83
2023/01/19 08:59:09;;;;;;;19.07;12.43;;;;;;;;;;5078354;28;20044;-84
2023/01/19 09:01:35;;;;;;;23.05;14.20;;;;;;;;;;5084675;28;20041;-83
2023/01/19 09:04:01;;;;;;;21.42;13.38;;;;;;;;;;5083492;28;20294;-85
2023/01/19 09:06:27;;;;;;;19.17;12.33;;;;;;;;;;5072368;28;20041;-85
2023/01/19 09:08:52;;;;;;;20.92;13.30;;;;;;;22.38;100.00;54049.78;5074874;28;20064;-84
2023/01/19 09:11:18;;;;;;;20.60;13.00;;;;;;;;;;5076025;28;20048;-84
2023/01/19 09:13:43;;;;;;;18.85;12.40;;;;;;;;;;5085983;28;20027;-85
2023/01/19 09:16:12;;;;;;;19.43;11.50;;;;;;;;;;5073483;28;20036;-84
2023/01/19 09:18:37;;;;;;;17.55;11.52;;;;;;;;;;5076447;28;20278;-85
2023/01/19 09:21:02;;;;;;;21.30;12.23;;;;;;;;;;5071226;28;20048;-84
2023/01/19 09:23:28;;;;;;;18.60;11.93;;;;;;;;;;5083588;28;20094;-85
2023/01/19 09:25:58;;;;;;;18.33;11.40;;;;;;;;;;5084368;28;20072;-84
2023/01/19 09:28:24;;;;;;;22.20;12.52;;;;;;;;;;5082750;28;20055;-85
2023/01/19 09:30:49;;;;;;;20.83;12.30;;;;;;;;;;5079423;28;20044;-85
2023/01/19 09:33:15;;;;;;;18.97;12.90;;;;;;;;;;5075760;28;20033;-83
2023/01/19 09:35:40;;;;;;;19.20;12.32;;;;;;;;;;5069569;28;20036;-84
2023/01/19 09:38:07;;;;;;;18.95;11.48;;;;;;;;;;5076115;28;20101;-85
2023/01/19 09:40:35;;;;;;;18.90;12.00;;;;;;;;;;5075241;28;20052;-85
2023/01/19 09:43:16;;;;;;;16.23;10.63;;;;;;;;;;5084442;28;20048;-84
2023/01/19 09:45:54;;;;;;;21.20;12.48;;;;;;;;;;5083980;28;20040;-84
2023/01/19 09:48:19;;;;;;;16.25;11.35;;;;;;;;;;5074283;28;20043;-84
2023/01/19 09:50:46;;;;;;;19.33;12.30;;;;;;;;;;5076332;28;20280;-85
2023/01/19 09:53:43;;;;;;;19.35;11.15;;;;;;;;;;5075384;28;20192;-85
2023/01/19 09:56:14;;;;;;;18.70;11.80;;;;;;;;;;5048089;28;20037;-85
2023/01/19 09:58:39;;;;;;;19.37;12.70;;;;;;;;;;5063596;28;20068;-84
2023/01/19 10:01:28;;;;;;;17.20;11.57;;;;;;;;;;5076085;28;20028;-85
2023/01/19 10:04:05;;;;;;;19.13;11.90;;;;;;;;;;5080644;28;20028;-84
2023/01/19 10:06:30;;;;;;;18.00;11.82;;;;;;;;;;5087925;28;20033;-83
2023/01/19 10:09:06;;;;;;;20.93;12.50;;;;;;;;;;5090794;28;20116;-85
2023/01/19 10:11:41;;;;;;;16.73;11.18;;;;;;;;;;5085276;28;20268;-87
2023/01/19 10:14:12;;;;;;;19.30;12.48;;;;;;;;;;5086489;28;20033;-86
2023/01/19 10:16:42;;;;;;;20.23;12.48;;;;;;;;;;5080493;28;20044;-84
2023/01/19 10:19:17;;;;;;;20.20;12.13;;;;;;;;;;5085801;28;20055;-84
2023/01/19 10:21:43;;;;;;;19.02;12.02;;;;;;;;;;5071090;22;20344;-87
2023/01/19 10:24:16;;;;;;;18.65;12.63;;;;;;;;;;5035434;28;20026;-88
2023/01/19 10:26:44;;;;;;;20.73;12.43;;;;;;;;;;5016302;28;20134;-87
2023/01/19 10:29:20;;;;;;;17.95;11.65;;;;;;;;;;5019203;28;20132;-87
2023/01/19 10:31:46;;;;;;;19.15;12.38;;;;;;;;;;5021502;28;20029;-87
2023/01/19 10:34:17;;;;;;;20.17;12.30;;;;;;;;;;5020870;28;20120;-87
2023/01/19 10:36:43;;;;;;;18.40;12.87;;;;;;;;;;5032229;28;20123;-87
2023/01/19 10:39:10;;;;;;;21.40;12.75;;;;;;;;;;5037533;28;20038;-88
2023/01/19 10:41:43;;;;;;;17.83;11.90;;;;;;;;;;5046443;28;20045;-87
2023/01/19 10:44:09;;;;;;;21.40;12.20;;;;;;;;;;5025339;28;20040;-88
2023/01/19 10:46:46;;;;;;;20.25;12.73;;;;;;;;;;5020024;28;20041;-87
2023/01/19 10:49:38;;;;;;;18.00;11.95;;;;;;;;;;5027318;28;20038;-88
2023/01/19 10:52:05;;;;;;;19.10;12.52;;;;;;;;;;5009600;28;20120;-87
2023/01/19 10:54:31;;;;;;;21.77;11.68;;;;;;;;;;5011789;28;20037;-87
2023/01/19 10:56:58;;;;;;;19.95;11.45;;;;;;;;;;5020731;28;20132;-88
2023/01/19 10:59:31;;;;;;;17.30;11.93;;;;;;;;;;5023824;28;20076;-87
2023/01/19 11:02:02;;;;;;;17.33;11.00;;;;;;;;;;5020034;28;20037;-88
2023/01/19 11:04:28;;;;;;;14.13;9.95;;;;;;;;;;5017347;28;20342;-87
2023/01/19 11:07:11;;;;;;;18.88;11.35;;;;;;;;;;5011838;28;20040;-88
2023/01/19 11:09:36;;;;;;;17.45;10.77;;;;;;;;;;5020976;28;20044;-87
2023/01/19 11:12:02;;;;;;;18.85;11.57;;;;;;;;;;5019486;28;20038;-87
2023/01/19 11:14:29;;;;;;;20.10;11.73;;;;;;;;;;5016242;28;20573;-88
2023/01/19 11:16:56;;;;;;;20.20;11.65;;;;;;;;;;5017607;28;20037;-88
2023/01/19 11:19:31;;;;;;;18.00;11.43;;;;;;;;;;5018402;28;20037;-88
2023/01/19 11:22:07;;;;;;;19.17;11.68;;;;;;;;;;5017833;28;20038;-87
2023/01/19 11:24:35;;;;;;;18.75;11.40;;;;;;;;;;5048501;28;20112;-87
2023/01/19 11:27:02;;;;;;;18.98;11.63;;;;;;;;;;5018149;28;20045;-87
2023/01/19 11:29:28;;;;;;;19.45;10.63;;;;;;;;;;5017373;28;20525;-87
2023/01/19 11:31:54;;;;;;;16.85;11.13;;;;;;;;;;5018630;28;20042;-87
2023/01/19 11:34:37;;;;;;;16.13;10.57;;;;;;;;;;5033308;28;20506;-87
2023/01/19 11:37:14;;;;;;;16.10;10.52;;;;;;;;;;5013295;28;20047;-87
2023/01/19 11:39:46;;;;;;;16.80;10.95;;;;;;;;;;4999996;28;20062;-87
2023/01/19 11:42:12;;;;;;;16.58;11.05;;;;;;;;;;5001299;28;20072;-87
2023/01/19 11:44:57;;;;;;;18.30;10.80;;;;;;;;;;5018714;28;20072;-87
2023/01/19 11:47:25;;;;;;;16.08;10.88;;;;;;;;;;5017153;28;20030;-87
2023/01/19 11:49:57;;;;;;;18.08;10.70;;;;;;;;;;5003726;28;20491;-87
2023/01/19 11:52:40;;;;;;;17.67;11.45;;;;;;;;;;5018317;28;20045;-86
2023/01/19 11:55:13;;;;;;;15.05;10.32;;;;;;;;;;5010864;28;20052;-87
2023/01/19 11:57:43;;;;;;;15.93;11.15;;;;;;;;;;5019097;28;20037;-87
2023/01/19 12:00:18;;;;;;;15.43;10.98;;;;;;;;;;5023946;28;20037;-87
2023/01/19 12:02:45;;;;;;;16.17;10.38;;;;;;;;;;5033531;28;20049;-87
2023/01/19 12:05:12;;;;;;;16.40;10.73;;;;;;;;;;5018536;28;20047;-86
2023/01/19 12:07:37;;;;;;;16.60;10.57;;;;;;;;;;5035167;28;20068;-86
2023/01/19 12:10:19;;;;;;;20.27;11.77;;;;;;;;;;5018325;28;20041;-88
2023/01/19 12:12:44;;;;;;;17.42;11.07;;;;;;;;;;5030605;28;20033;-86
2023/01/19 12:15:24;;;;;;;19.10;10.63;;;;;;;;;;5018759;28;20095;-87
2023/01/19 12:17:50;;;;;;;16.60;10.68;;;;;;;;;;5027818;28;20064;-87
2023/01/19 12:20:18;;;;;;;17.35;10.70;;;;;;;;;;5015153;28;20558;-87
2023/01/19 12:22:48;;;;;;;18.05;10.55;;;;;;;;;;5011769;28;20042;-87
2023/01/19 12:25:19;;;;;;;17.15;11.30;;;;;;;;;;5016428;28;20041;-87
2023/01/19 12:27:45;;;;;;;18.55;10.77;;;;;;;;;;5036068;28;20053;-87
2023/01/19 12:30:19;;;;;;;16.30;10.48;;;;;;;;;;5011174;28;20041;-87
2023/01/19 12:32:45;;;;;;;19.60;11.63;;;;;;;-145.28;100.00;65941.84;5016991;28;20104;-87
2023/01/19 12:35:29;;;;;;;20.05;11.52;;;;;;;;;;4998688;28;20037;-88
2023/01/19 12:37:54;;;;;;;17.10;11.15;;;;;;;;;;5015225;28;20120;-87
2023/01/19 12:40:24;;;;;;;18.63;10.77;;;;;;;;;;5016797;28;20331;-87
2023/01/19 12:42:55;;;;;;;16.77;10.68;;;;;;;;;;4997697;28;20296;-87
2023/01/19 12:45:23;;;;;;;19.80;10.60;;;;;;;;;;5006135;28;20085;-87
2023/01/19 12:47:51;;;;;;;15.27;10.40;;;;;;;;;;5007497;28;20033;-88
2023/01/19 12:50:19;;;;;;;17.70;10.85;;;;;;;;;;5000967;28;20556;-87
2023/01/19 12:53:02;;;;;;;16.80;10.73;;;;;;;;;;5013235;28;20045;-88
2023/01/19 12:55:33;;;;;;;17.38;11.18;;;;;;;;;;5014796;28;20103;-88
2023/01/19 12:58:17;;;;;;;17.60;11.05;;;;;;;;;;5010118;28;20171;-88
2023/01/19 13:00:44;;;;;;;17.35;10.77;;;;;;;;;;5015089;28;20091;-88
2023/01/19 13:03:15;;;;;;;17.35;10.73;;;;;;;;;;5000278;28;20377;-88
2023/01/19 13:05:41;;;;;;;15.88;10.40;;;;;;;;;;5000444;28;20051;-88
2023/01/19 13:08:09;;;;;;;15.60;10.10;;;;;;;;;;5019361;28;20033;-89
2023/01/19 13:10:53;;;;;;;14.45;9.20;;;;;;;;;;5018537;28;20124;-88
2023/01/19 13:13:19;;;;;;;15.40;9.60;;;;;;;;;;5013151;28;20545;-88
2023/01/19 13:15:44;;;;;;;14.90;9.80;;;;;;;;;;5012443;28;20053;-87
2023/01/19 13:18:16;;;;;;;15.17;9.70;;;;;;;;;;5012841;28;20209;-88
2023/01/19 13:20:44;;;;;;;16.67;9.90;;;;;;;;;;5006138;28;20277;-88
2023/01/19 13:23:18;;;;;;;12.77;9.65;;;;;;;;;;5014033;28;20034;-88
2023/01/19 13:25:49;;;;;;;13.68;9.88;;;;;;;;;;4996795;28;20065;-87
2023/01/19 13:28:14;;;;;;;;;;;;;;;;;;5010320;28;20137;-88
2023/01/19 13:30:48;;;;;;;16.48;9.82;;;;;;;;;;5031259;28;19940;-87
2023/01/19 13:33:17;;;;;;;13.30;9.30;;;;;;;;;;5014811;28;20034;-88
2023/01/19 13:35:51;;;;;;;16.85;9.57;;;;;;;;;;5012505;28;20104;-88
2023/01/19 13:38:16;;;;;;;14.35;9.43;;;;;;;;;;5008981;28;20568;-88
2023/01/19 13:40:43;;;;;;;15.38;10.07;;;;;;;;;;5001992;28;20116;-88
2023/01/19 13:43:21;;;;;;;15.32;9.75;;;;;;;;;;5016566;28;20286;-87
2023/01/19 13:45:48;;;;;;;15.80;9.52;;;;;;;;;;5012053;28;20068;-88
2023/01/19 13:48:16;;;;;;;14.82;9.60;;;;;;;;;;5014625;28;20061;-88
2023/01/19 13:50:43;;;;;;;15.30;9.88;;;;;;;;;;5016805;28;20525;-88
2023/01/19 13:53:19;;;;;;;16.27;9.70;;;;;;;;;;5025108;28;20037;-87
2023/01/19 13:55:47;;;;;;;14.90;9.82;;;;;;;;;;5012280;28;20026;-87
2023/01/19 13:58:22;;;;;;;14.43;9.98;;;;;;;;;;5009546;28;20095;-88
2023/01/19 14:00:48;;;;;;;14.65;9.70;;;;;;;;;;5013665;28;20041;-88
2023/01/19 14:03:22;;;;;;;15.43;9.98;;;;;;;;;;4990700;28;20126;-88
2023/01/19 14:05:51;;;;;;;14.80;9.50;;;;;;;;;;5024745;28;20045;-88
2023/01/19 14:08:18;;;;;;;14.20;9.15;;;;;;;;;;5031468;28;20088;-88
2023/01/19 14:10:46;;;;;;;14.32;9.00;;;;;;;;;;5011551;28;20133;-88
2023/01/19 14:13:11;;;;;;;16.10;9.43;;;;;;;;;;4992135;28;20037;-88
2023/01/19 14:15:37;;;;;;;15.80;9.67;;;;;;;;;;5030680;28;20495;-88
2023/01/19 14:18:10;;;;;;;14.52;9.57;;;;;;;;;;5013026;28;20046;-89
2023/01/19 14:20:38;;;;;;;13.95;8.55;;;;;;;;;;5010477;28;20068;-89
2023/01/19 14:23:05;;;;;;;11.77;8.13;;;;;;;;;;5002685;28;20037;-88